createdAt,value
2017-10-26T00:01:04.091Z,20.42
2017-10-26T00:03:31.653Z,34.70
2017-10-26T00:05:59.202Z,18.87
2017-10-26T00:08:26.757Z,22.05
2017-10-26T00:10:54.303Z,33.17
2017-10-26T00:13:21.866Z,35.65
2017-10-26T00:15:49.405Z,36.15
2017-10-26T00:18:16.966Z,36.60
2017-10-26T00:20:44.507Z,34.65
2017-10-26T00:23:12.836Z,40.28
2017-10-26T00:25:40.372Z,40.47
2017-10-26T00:28:07.937Z,35.10
2017-10-26T00:30:35.469Z,37.88
2017-10-26T00:33:04.186Z,43.90
2017-10-26T00:35:32.165Z,35.60
2017-10-26T00:37:59.706Z,37.25
2017-10-26T00:40:27.281Z,42.83
2017-10-26T00:42:55.595Z,39.20
2017-10-26T00:45:23.161Z,34.80
2017-10-26T00:47:51.083Z,38.88
2017-10-26T00:50:18.744Z,23.85
2017-10-26T00:52:46.291Z,31.92
2017-10-26T00:55:13.924Z,25.90
2017-10-26T00:57:41.490Z,31.92
2017-10-26T01:00:09.028Z,30.67
2017-10-26T01:02:36.591Z,31.70
2017-10-26T01:05:04.917Z,33.95
2017-10-26T01:07:32.485Z,33.80
2017-10-26T01:10:00.056Z,32.28
2017-10-26T01:12:27.638Z,31.87
2017-10-26T01:14:55.191Z,27.55
2017-10-26T01:17:22.759Z,35.40
2017-10-26T01:19:51.077Z,35.95
2017-10-26T01:22:18.648Z,44.10
2017-10-26T01:24:46.188Z,42.13
2017-10-26T01:27:13.773Z,45.03
2017-10-26T01:29:41.321Z,41.42
2017-10-26T01:32:08.995Z,42.00
2017-10-26T01:34:36.556Z,41.25
2017-10-26T01:37:04.093Z,49.13
2017-10-26T01:39:31.637Z,39.90
2017-10-26T01:41:59.966Z,39.22
2017-10-26T01:44:27.534Z,45.23
2017-10-26T01:46:55.084Z,44.05
2017-10-26T01:49:22.641Z,46.03
2017-10-26T01:51:50.182Z,47.00
2017-10-26T01:54:17.725Z,52.43
2017-10-26T01:56:45.290Z,56.88
2017-10-26T01:59:12.830Z,48.22
2017-10-26T02:01:41.160Z,57.10
2017-10-26T02:04:08.716Z,68.25
2017-10-26T02:06:36.286Z,70.07
2017-10-26T02:09:04.600Z,79.32
2017-10-26T02:11:32.276Z,60.12
2017-10-26T02:13:59.816Z,70.43
2017-10-26T02:16:27.390Z,53.90
2017-10-26T02:18:54.933Z,70.55
2017-10-26T02:21:22.500Z,85.18
2017-10-26T02:23:50.061Z,67.45
2017-10-26T02:26:17.622Z,79.65
2017-10-26T02:29:05.894Z,99.13
2017-10-26T02:31:35.880Z,81.22
2017-10-26T02:34:03.441Z,162.02
2017-10-26T02:36:31.025Z,120.45
2017-10-26T02:38:58.566Z,165.50
2017-10-26T02:41:26.123Z,148.75
2017-10-26T02:43:53.687Z,287.48
2017-10-26T02:46:21.234Z,90.55
2017-10-26T02:48:48.817Z,166.30
2017-10-26T02:51:16.366Z,135.35
2017-10-26T02:53:43.937Z,120.40
2017-10-26T02:56:11.487Z,134.05
2017-10-26T02:58:39.055Z,148.62
2017-10-26T03:01:06.595Z,102.53
2017-10-26T03:03:34.153Z,127.57
2017-10-26T03:06:01.717Z,114.45
2017-10-26T03:08:29.256Z,181.12
2017-10-26T03:10:57.676Z,143.98
2017-10-26T03:13:25.216Z,126.40
2017-10-26T03:15:52.785Z,120.32
2017-10-26T03:18:20.345Z,124.63
2017-10-26T03:20:47.893Z,154.85
2017-10-26T03:23:15.441Z,87.00
2017-10-26T03:25:42.998Z,89.40
2017-10-26T03:28:10.565Z,269.50
2017-10-26T03:30:38.114Z,95.43
2017-10-26T03:33:06.462Z,184.13
2017-10-26T03:35:34.008Z,227.65
2017-10-26T03:38:01.566Z,81.47
2017-10-26T03:40:29.102Z,88.27
2017-10-26T03:42:56.640Z,100.93
2017-10-26T03:45:24.218Z,197.10
2017-10-26T03:47:51.765Z,113.28
2017-10-26T03:50:19.339Z,172.07
2017-10-26T03:52:46.895Z,117.35
2017-10-26T03:55:14.465Z,124.93
2017-10-26T03:57:42.013Z,92.50
2017-10-26T04:00:09.594Z,116.95
2017-10-26T04:02:37.142Z,119.85
2017-10-26T04:05:04.709Z,172.75
2017-10-26T04:07:33.037Z,151.82
2017-10-26T04:10:00.594Z,114.85
2017-10-26T04:12:28.143Z,92.50
2017-10-26T04:14:55.693Z,103.32
2017-10-26T04:17:24.025Z,154.93
2017-10-26T04:19:51.565Z,100.95
2017-10-26T04:22:19.128Z,113.72
2017-10-26T04:24:46.673Z,113.05
2017-10-26T04:27:14.250Z,128.25
2017-10-26T04:29:42.585Z,78.00
2017-10-26T04:32:10.718Z,113.65
2017-10-26T04:34:38.265Z,76.10
2017-10-26T04:37:06.601Z,179.68
2017-10-26T04:39:34.196Z,193.75
2017-10-26T04:42:01.773Z,332.95
2017-10-26T04:44:29.318Z,148.45
2017-10-26T04:46:56.928Z,270.65
2017-10-26T04:49:25.932Z,201.07
2017-10-26T04:51:54.488Z,163.85
2017-10-26T04:54:22.349Z,418.30
2017-10-26T04:56:50.146Z,183.43
2017-10-26T04:59:18.453Z,118.32
2017-10-26T05:01:46.012Z,199.23
2017-10-26T05:04:14.361Z,164.30
2017-10-26T05:06:41.905Z,157.37
2017-10-26T05:09:09.608Z,199.12
2017-10-26T05:11:37.150Z,217.57
2017-10-26T05:14:04.717Z,175.95
2017-10-26T05:16:32.358Z,174.95
2017-10-26T05:19:00.666Z,248.02
2017-10-26T05:21:28.237Z,213.93
2017-10-26T05:23:55.797Z,202.68
2017-10-26T05:26:23.344Z,182.98
2017-10-26T05:28:50.931Z,141.80
2017-10-26T05:31:18.492Z,138.65
2017-10-26T05:33:46.021Z,93.22
2017-10-26T05:36:13.592Z,159.93
2017-10-26T05:38:41.914Z,147.55
2017-10-26T05:41:09.474Z,269.60
2017-10-26T05:43:37.015Z,145.80
2017-10-26T05:46:04.569Z,93.65
2017-10-26T05:48:32.106Z,253.57
2017-10-26T05:51:00.449Z,214.63
2017-10-26T05:53:27.990Z,89.53
2017-10-26T05:55:55.548Z,64.30
2017-10-26T05:58:23.085Z,93.20
2017-10-26T06:00:50.655Z,57.08
2017-10-26T06:03:18.240Z,64.40
2017-10-26T06:05:45.783Z,50.42
2017-10-26T06:08:13.354Z,296.45
2017-10-26T06:10:44.062Z,143.35
2017-10-26T06:13:13.083Z,267.60
2017-10-26T06:15:40.621Z,189.52
2017-10-26T06:18:08.182Z,149.68
2017-10-26T06:20:35.726Z,132.90
2017-10-26T06:23:03.299Z,88.03
2017-10-26T06:25:30.845Z,98.50
2017-10-26T06:27:58.393Z,99.85
2017-10-26T06:30:25.928Z,77.82
2017-10-26T06:32:54.245Z,47.20
2017-10-26T06:35:21.796Z,74.85
2017-10-26T06:37:49.332Z,238.75
2017-10-26T06:40:17.676Z,77.15
2017-10-26T06:42:45.225Z,210.50
2017-10-26T06:45:12.774Z,134.48
2017-10-26T06:47:40.328Z,104.10
2017-10-26T06:50:07.869Z,161.95
2017-10-26T06:52:35.432Z,129.68
2017-10-26T06:55:05.707Z,145.75
2017-10-26T06:57:33.309Z,131.93
2017-10-26T07:00:01.633Z,80.50
2017-10-26T07:02:29.191Z,70.18
2017-10-26T07:04:56.756Z,133.85
2017-10-26T07:07:24.289Z,229.32
2017-10-26T07:09:52.621Z,112.12
2017-10-26T07:12:20.163Z,242.73
2017-10-26T07:14:47.725Z,91.70
2017-10-26T07:17:15.290Z,131.87
2017-10-26T07:19:42.867Z,113.65
2017-10-26T07:22:10.417Z,57.05
2017-10-26T07:24:37.981Z,74.78
2017-10-26T07:27:05.513Z,50.45
2017-10-26T07:29:33.070Z,21.42
2017-10-26T07:32:00.620Z,35.90
2017-10-26T07:34:28.184Z,27.70
2017-10-26T07:36:55.717Z,32.35
2017-10-26T07:39:24.037Z,32.70
2017-10-26T07:41:51.569Z,26.12
2017-10-26T07:44:19.885Z,24.17
2017-10-26T07:46:47.422Z,14.85
2017-10-26T07:49:14.974Z,15.25
2017-10-26T07:51:42.504Z,11.43
2017-10-26T07:54:10.049Z,10.60
2017-10-26T07:56:37.603Z,11.48
2017-10-26T07:59:05.147Z,8.27
2017-10-26T08:01:32.797Z,9.82
2017-10-26T08:04:00.351Z,6.25
2017-10-26T08:06:28.017Z,6.00
2017-10-26T08:08:55.554Z,6.20
2017-10-26T08:11:23.109Z,6.30
2017-10-26T08:13:51.407Z,7.30
2017-10-26T08:16:18.971Z,5.60
2017-10-26T08:18:46.518Z,4.63
2017-10-26T08:21:14.052Z,4.80
2017-10-26T08:23:42.377Z,5.27
2017-10-26T08:26:09.932Z,4.70
2017-10-26T08:28:37.472Z,4.77
2017-10-26T08:31:05.034Z,4.53
2017-10-26T08:33:32.577Z,4.70
2017-10-26T08:36:00.879Z,5.20
2017-10-26T08:38:28.447Z,4.87
2017-10-26T08:40:55.967Z,4.10
2017-10-26T08:43:24.319Z,4.00
2017-10-26T08:45:52.152Z,4.67
2017-10-26T08:48:19.697Z,4.17
2017-10-26T08:50:47.240Z,4.43
2017-10-26T08:53:15.535Z,3.73
2017-10-26T08:55:43.104Z,4.83
2017-10-26T08:58:10.630Z,4.00
2017-10-26T09:00:38.964Z,4.77
2017-10-26T09:03:06.491Z,4.03
2017-10-26T09:05:34.049Z,4.23
2017-10-26T09:08:01.571Z,3.80
2017-10-26T09:10:29.125Z,5.00
2017-10-26T09:12:56.654Z,4.40
2017-10-26T09:15:24.216Z,4.40
2017-10-26T09:17:51.858Z,4.80
2017-10-26T09:20:19.432Z,4.67
2017-10-26T09:22:46.965Z,5.53
2017-10-26T09:25:14.486Z,4.87
2017-10-26T09:27:42.107Z,4.27
2017-10-26T09:30:09.649Z,5.23
2017-10-26T09:32:37.211Z,4.73
2017-10-26T09:35:04.739Z,5.43
2017-10-26T09:37:33.048Z,5.43
2017-10-26T09:40:00.583Z,5.10
2017-10-26T09:42:29.241Z,4.60
2017-10-26T09:44:56.773Z,5.40
2017-10-26T09:47:24.313Z,6.57
2017-10-26T09:49:51.862Z,5.33
2017-10-26T09:52:19.412Z,4.40
2017-10-26T09:54:47.746Z,5.10
2017-10-26T09:57:15.273Z,5.00
2017-10-26T09:59:43.859Z,4.70
2017-10-26T10:02:11.525Z,4.20
2017-10-26T10:04:39.103Z,4.90
2017-10-26T10:07:06.644Z,3.87
2017-10-26T10:09:36.828Z,3.57
2017-10-26T10:12:05.148Z,4.17
2017-10-26T10:14:32.723Z,3.30
2017-10-26T10:17:00.291Z,4.33
2017-10-26T10:19:27.829Z,3.00
2017-10-26T10:21:55.394Z,4.40
2017-10-26T10:24:22.921Z,3.03
2017-10-26T10:26:50.512Z,3.30
2017-10-26T10:29:18.081Z,3.17
2017-10-26T10:31:45.637Z,5.10
2017-10-26T10:34:13.241Z,4.10
2017-10-26T10:36:40.796Z,3.50
2017-10-26T10:39:08.337Z,3.43
2017-10-26T10:41:35.865Z,3.33
2017-10-26T10:44:03.413Z,3.77
2017-10-26T10:46:30.957Z,3.60
2017-10-26T10:48:59.274Z,3.43
2017-10-26T10:51:26.801Z,3.30
2017-10-26T10:53:54.352Z,3.23
2017-10-26T10:56:22.686Z,5.07
2017-10-26T10:58:50.217Z,3.97
2017-10-26T11:01:17.879Z,3.90
2017-10-26T11:03:45.410Z,4.53
2017-10-26T11:06:13.732Z,9.63
2017-10-26T11:08:41.265Z,6.50
2017-10-26T11:11:08.949Z,7.03
2017-10-26T11:13:36.489Z,4.40
2017-10-26T11:16:04.047Z,4.50
2017-10-26T11:18:31.581Z,4.10
2017-10-26T11:20:59.150Z,3.50
2017-10-26T11:23:27.446Z,3.13
2017-10-26T11:25:54.990Z,3.07
2017-10-26T11:28:23.301Z,2.20
2017-10-26T11:30:50.841Z,2.30
2017-10-26T11:33:18.385Z,1.80
2017-10-26T11:35:46.676Z,2.73
2017-10-26T11:38:14.221Z,1.70
2017-10-26T11:40:42.513Z,2.17
2017-10-26T11:43:10.066Z,2.07
2017-10-26T11:45:37.645Z,1.63
2017-10-26T11:48:05.205Z,1.63
2017-10-26T11:50:32.776Z,1.23
2017-10-26T11:53:00.366Z,3.33
2017-10-26T11:55:27.905Z,2.37
2017-10-26T11:57:55.432Z,1.50
2017-10-26T12:00:23.117Z,3.00
2017-10-26T12:02:50.657Z,1.80
2017-10-26T12:05:18.219Z,1.63
2017-10-26T12:07:45.749Z,4.23
2017-10-26T12:10:14.055Z,1.70
2017-10-26T12:12:41.594Z,2.27
2017-10-26T12:15:09.913Z,1.87
2017-10-26T12:17:37.462Z,4.10
2017-10-26T12:20:05.020Z,1.87
2017-10-26T12:22:32.555Z,2.30
2017-10-26T12:25:00.869Z,1.90
2017-10-26T12:27:28.430Z,2.60
2017-10-26T12:29:55.989Z,1.60
2017-10-26T12:32:23.550Z,4.97
2017-10-26T12:34:51.085Z,1.53
2017-10-26T12:37:18.632Z,2.07
2017-10-26T12:39:46.158Z,2.87
2017-10-26T12:42:13.722Z,1.70
2017-10-26T12:44:41.237Z,1.90
2017-10-26T12:47:08.793Z,2.10
2017-10-26T12:49:36.325Z,1.87
2017-10-26T12:52:04.633Z,1.63
2017-10-26T12:54:32.187Z,2.20
2017-10-26T12:56:59.717Z,2.03
2017-10-26T12:59:27.292Z,2.13
2017-10-26T13:01:55.236Z,1.60
2017-10-26T13:04:22.839Z,2.70
2017-10-26T13:06:51.134Z,2.80
2017-10-26T13:09:18.699Z,2.63
2017-10-26T13:11:46.229Z,2.63
2017-10-26T13:14:14.537Z,2.30
2017-10-26T13:16:42.077Z,2.43
2017-10-26T13:19:10.528Z,3.77
2017-10-26T13:21:38.355Z,3.63
2017-10-26T13:24:06.018Z,5.10
2017-10-26T13:26:33.541Z,2.57
2017-10-26T13:29:01.105Z,4.63
2017-10-26T13:31:28.629Z,3.13
2017-10-26T13:33:56.185Z,2.23
2017-10-26T13:36:23.740Z,3.03
2017-10-26T13:38:51.286Z,2.90
2017-10-26T13:41:19.614Z,2.90
2017-10-26T13:43:47.160Z,2.80
2017-10-26T13:46:15.479Z,3.50
2017-10-26T13:48:43.015Z,4.00
2017-10-26T13:51:10.566Z,4.80
2017-10-26T13:53:38.101Z,3.20
2017-10-26T13:56:06.417Z,3.13
2017-10-26T13:58:33.961Z,2.47
2017-10-26T14:01:01.506Z,4.90
2017-10-26T14:03:29.047Z,3.03
2017-10-26T14:05:57.409Z,3.33
2017-10-26T14:08:25.002Z,3.17
2017-10-26T14:10:52.598Z,7.17
2017-10-26T14:13:20.157Z,2.53
2017-10-26T14:15:47.694Z,3.10
2017-10-26T14:18:15.245Z,5.00
2017-10-26T14:20:42.821Z,4.57
2017-10-26T14:23:10.368Z,4.50
2017-10-26T14:25:37.907Z,3.43
2017-10-26T14:28:05.465Z,3.13
2017-10-26T14:30:33.001Z,5.23
2017-10-26T14:33:00.528Z,4.13
2017-10-26T14:35:28.109Z,3.70
2017-10-26T14:37:55.641Z,3.73
2017-10-26T14:40:23.228Z,2.83
2017-10-26T14:42:51.590Z,3.00
2017-10-26T14:45:19.368Z,3.47
2017-10-26T14:47:47.236Z,3.33
2017-10-26T14:50:15.101Z,3.53
2017-10-26T14:52:42.869Z,3.30
2017-10-26T14:55:10.473Z,3.70
2017-10-26T14:57:38.035Z,9.30
2017-10-26T15:00:06.365Z,4.07
2017-10-26T15:02:33.890Z,4.67
2017-10-26T15:05:02.214Z,5.17
2017-10-26T15:07:29.737Z,6.57
2017-10-26T15:09:57.298Z,3.57
2017-10-26T15:12:24.883Z,5.60
2017-10-26T15:14:52.409Z,3.67
2017-10-26T15:17:20.730Z,5.17
2017-10-26T15:19:48.271Z,3.90
2017-10-26T15:22:15.827Z,6.50
2017-10-26T15:24:43.381Z,4.60
2017-10-26T15:27:10.933Z,6.40
2017-10-26T15:29:38.488Z,4.93
2017-10-26T15:32:06.902Z,3.60
2017-10-26T15:34:34.442Z,8.23
2017-10-26T15:37:02.002Z,4.40
2017-10-26T15:39:29.541Z,4.43
2017-10-26T15:41:57.081Z,4.30
2017-10-26T15:44:24.648Z,6.73
2017-10-26T15:46:52.967Z,4.90
2017-10-26T15:49:20.524Z,9.13
2017-10-26T15:51:48.065Z,6.37
2017-10-26T15:54:15.631Z,5.60
2017-10-26T15:56:43.167Z,6.57
2017-10-26T15:59:11.495Z,4.87
2017-10-26T16:01:39.032Z,5.80
2017-10-26T16:04:06.597Z,4.37
2017-10-26T16:06:34.148Z,5.27
2017-10-26T16:09:01.678Z,6.83
2017-10-26T16:11:29.236Z,7.30
2017-10-26T16:13:57.561Z,6.97
2017-10-26T16:16:25.112Z,7.20
2017-10-26T16:18:52.662Z,6.53
2017-10-26T16:21:20.209Z,7.60
2017-10-26T16:23:48.516Z,8.90
2017-10-26T16:26:16.079Z,8.70
2017-10-26T16:28:43.699Z,13.43
2017-10-26T16:31:12.041Z,14.33
2017-10-26T16:33:39.688Z,8.60
2017-10-26T16:36:07.248Z,12.90
2017-10-26T16:38:34.811Z,8.67
2017-10-26T16:41:02.370Z,10.10
2017-10-26T16:43:29.905Z,9.23
2017-10-26T16:45:57.449Z,9.33
2017-10-26T16:48:25.778Z,8.63
2017-10-26T16:50:53.305Z,7.83
2017-10-26T16:53:20.868Z,12.93
2017-10-26T16:55:48.391Z,6.80
2017-10-26T16:58:15.951Z,10.40
2017-10-26T17:00:43.485Z,9.47
2017-10-26T17:03:11.055Z,9.73
2017-10-26T17:05:38.600Z,10.20
2017-10-26T17:08:06.154Z,11.77
2017-10-26T17:10:33.684Z,10.70
2017-10-26T17:13:01.222Z,10.77
2017-10-26T17:15:29.552Z,13.70
2017-10-26T17:17:57.085Z,8.10
2017-10-26T17:20:24.644Z,10.33
2017-10-26T17:22:52.188Z,11.83
2017-10-26T17:25:20.513Z,10.93
2017-10-26T17:27:48.053Z,11.60
2017-10-26T17:30:15.607Z,10.67
2017-10-26T17:32:43.151Z,10.50
2017-10-26T17:35:10.713Z,10.07
2017-10-26T17:37:38.272Z,10.40
2017-10-26T17:40:05.848Z,15.15
2017-10-26T17:42:33.398Z,12.37
2017-10-26T17:45:00.930Z,9.87
2017-10-26T17:47:29.252Z,9.47
2017-10-26T17:49:56.782Z,10.97
2017-10-26T17:52:25.117Z,12.07
2017-10-26T17:54:52.674Z,12.10
2017-10-26T17:57:20.230Z,13.33
2017-10-26T17:59:47.777Z,12.80
2017-10-26T18:02:15.305Z,9.67
2017-10-26T18:04:42.886Z,11.88
2017-10-26T18:07:10.452Z,16.47
2017-10-26T18:09:38.041Z,12.52
2017-10-26T18:12:05.569Z,13.60
2017-10-26T18:14:33.145Z,10.47
2017-10-26T18:17:00.702Z,16.52
2017-10-26T18:19:28.393Z,11.55
2017-10-26T18:21:56.698Z,13.00
2017-10-26T18:24:25.041Z,10.48
2017-10-26T18:26:52.607Z,14.68
2017-10-26T18:29:20.192Z,15.45
2017-10-26T18:31:48.514Z,15.35
2017-10-26T18:34:16.061Z,19.87
2017-10-26T18:36:43.734Z,18.55
2017-10-26T18:39:11.313Z,15.10
2017-10-26T18:41:38.865Z,17.52
2017-10-26T18:44:06.440Z,15.40
2017-10-26T18:46:34.029Z,19.92
2017-10-26T18:49:02.381Z,16.52
2017-10-26T18:51:29.914Z,15.53
2017-10-26T18:53:57.488Z,13.55
2017-10-26T18:56:25.036Z,13.50
2017-10-26T18:58:52.604Z,13.07
2017-10-26T19:01:20.169Z,15.10
2017-10-26T19:03:47.749Z,14.18
2017-10-26T19:06:15.304Z,17.13
2017-10-26T19:08:42.942Z,16.17
2017-10-26T19:11:10.515Z,17.17
2017-10-26T19:13:38.106Z,11.10
2017-10-26T19:16:06.433Z,19.23
2017-10-26T19:18:34.018Z,11.35
2017-10-26T19:21:01.578Z,16.73
2017-10-26T19:23:29.178Z,14.00
2017-10-26T19:25:57.509Z,13.85
2017-10-26T19:28:25.086Z,13.80
2017-10-26T19:30:52.630Z,18.35
2017-10-26T19:33:20.240Z,16.52
2017-10-26T19:35:47.789Z,15.30
2017-10-26T19:38:16.122Z,15.48
2017-10-26T19:40:43.670Z,15.68
2017-10-26T19:43:11.216Z,16.40
2017-10-26T19:45:38.776Z,13.82
2017-10-26T19:48:06.322Z,16.20
2017-10-26T19:50:33.883Z,13.82
2017-10-26T19:53:01.460Z,16.42
2017-10-26T19:55:29.951Z,12.70
2017-10-26T19:57:57.515Z,20.42
2017-10-26T20:00:25.080Z,26.42
2017-10-26T20:02:52.739Z,26.52
2017-10-26T20:05:20.309Z,20.67
2017-10-26T20:07:47.894Z,19.90
2017-10-26T20:10:15.461Z,16.42
2017-10-26T20:12:43.004Z,16.43
2017-10-26T20:15:10.582Z,16.35
2017-10-26T20:17:38.163Z,16.25
2017-10-26T20:20:05.715Z,13.10
2017-10-26T20:22:33.286Z,13.05
2017-10-26T20:25:00.858Z,15.85
2017-10-26T20:27:29.161Z,15.35
2017-10-26T20:29:56.726Z,16.75
2017-10-26T20:32:24.269Z,19.33
2017-10-26T20:34:51.849Z,16.48
2017-10-26T20:37:19.413Z,14.73
2017-10-26T20:39:48.153Z,18.10
2017-10-26T20:42:15.680Z,17.70
2017-10-26T20:44:43.228Z,17.52
2017-10-26T20:47:10.816Z,21.77
2017-10-26T20:49:44.070Z,17.67
2017-10-26T20:52:17.317Z,13.38
2017-10-26T20:54:51.399Z,18.83
2017-10-26T20:57:24.557Z,19.05
2017-10-26T20:59:57.835Z,18.02
2017-10-26T21:02:31.170Z,19.80
2017-10-26T21:05:04.510Z,20.77
2017-10-26T21:07:38.608Z,25.90
2017-10-26T21:10:21.068Z,32.25
2017-10-26T21:12:54.193Z,33.65
2017-10-26T21:15:21.766Z,33.72
2017-10-26T21:17:50.082Z,32.33
2017-10-26T21:20:17.642Z,26.40
2017-10-26T21:22:45.209Z,26.10
2017-10-26T21:25:12.765Z,21.42
2017-10-26T21:27:40.326Z,26.25
2017-10-26T21:30:07.908Z,25.95
2017-10-26T21:32:36.228Z,27.23
2017-10-26T21:35:04.571Z,31.60
2017-10-26T21:37:32.121Z,26.13
2017-10-26T21:39:59.679Z,20.17
2017-10-26T21:42:27.256Z,24.17
2017-10-26T21:44:54.816Z,21.33
2017-10-26T21:47:22.369Z,22.25
2017-10-26T21:49:50.689Z,20.15
2017-10-26T21:52:18.245Z,19.20
2017-10-26T21:54:45.792Z,21.40
2017-10-26T21:57:14.582Z,21.70
2017-10-26T21:59:42.124Z,20.95
2017-10-26T22:02:09.721Z,20.10
2017-10-26T22:04:37.253Z,18.45
2017-10-26T22:07:04.823Z,16.67
2017-10-26T22:09:32.374Z,21.20
2017-10-26T22:11:59.953Z,20.02
2017-10-26T22:14:27.493Z,19.45
2017-10-26T22:16:55.076Z,16.80
2017-10-26T22:19:22.617Z,18.10
2017-10-26T22:21:50.194Z,27.37
2017-10-26T22:24:17.754Z,17.40
2017-10-26T22:26:45.310Z,18.10
2017-10-26T22:29:13.310Z,20.62
2017-10-26T22:31:40.882Z,19.33
2017-10-26T22:34:08.441Z,25.35
2017-10-26T22:36:35.985Z,19.08
2017-10-26T22:39:12.939Z,20.05
2017-10-26T22:41:44.945Z,21.75
2017-10-26T22:44:14.042Z,21.67
2017-10-26T22:46:41.605Z,19.83
2017-10-26T22:49:09.172Z,25.60
2017-10-26T22:51:36.726Z,21.17
2017-10-26T22:54:04.285Z,18.60
2017-10-26T22:56:31.825Z,14.52
2017-10-26T22:58:59.384Z,15.88
2017-10-26T23:01:26.912Z,16.75
2017-10-26T23:03:55.269Z,14.45
2017-10-26T23:06:22.805Z,12.82
2017-10-26T23:08:50.361Z,16.85
2017-10-26T23:11:17.906Z,13.98
2017-10-26T23:13:45.482Z,15.90
2017-10-26T23:16:13.039Z,17.92
2017-10-26T23:18:40.634Z,14.40
2017-10-26T23:21:08.946Z,17.23
2017-10-26T23:23:37.258Z,17.55
2017-10-26T23:26:04.808Z,17.25
2017-10-26T23:28:32.367Z,15.38
2017-10-26T23:30:59.900Z,17.37
2017-10-26T23:33:28.229Z,16.37
2017-10-26T23:35:55.761Z,14.15
2017-10-26T23:38:23.301Z,13.73
2017-10-26T23:40:50.869Z,19.73
2017-10-26T23:43:18.406Z,18.37
2017-10-26T23:45:46.735Z,13.48
2017-10-26T23:48:14.297Z,17.20
2017-10-26T23:50:41.845Z,14.80
2017-10-26T23:53:10.175Z,14.38
2017-10-26T23:55:37.729Z,16.58
2017-10-26T23:58:05.285Z,17.77
